Time;durP1;ratioP1;P1;durP2;ratioP2;P2;SDS_P1;SDS_P2;PMS_P1;PMS_P2;Temp;Humidity;BMP_temperature;BMP_pressure;BME280_temperature;BME280_humidity;BME280_pressure;Samples;Min_cycle;Max_cycle;Signal;HPM_P1;HPM_P2
2023/08/13 00:01:08;;;;;;;3.73;1.40;;;;;;;22.73;56.91;100707.63;10330478;28;96824;-77
2023/08/13 00:06:12;;;;;;;3.15;1.20;;;;;;;22.92;56.66;100698.91;10333778;28;96913;-78
2023/08/13 00:11:16;;;;;;;1.60;1.02;;;;;;;22.70;57.09;100691.75;10322633;28;98287;-78
2023/08/13 00:16:19;;;;;;;2.57;1.00;;;;;;;22.66;57.22;100690.31;10327020;28;99055;-78
2023/08/13 00:21:24;;;;;;;2.58;1.27;;;;;;;22.63;57.15;100687.84;10329994;28;96757;-78
2023/08/13 00:26:28;;;;;;;3.58;1.55;;;;;;;22.25;58.13;100682.94;10327187;28;98525;-78
2023/08/13 00:31:32;;;;;;;5.18;1.45;;;;;;;22.04;58.98;100684.66;10325518;28;96808;-77
2023/08/13 00:36:36;;;;;;;3.72;1.38;;;;;;;21.92;59.22;100679.41;10327645;28;96851;-78
2023/08/13 00:41:40;;;;;;;3.53;1.55;;;;;;;21.97;58.93;100666.50;10331678;28;96861;-78
2023/08/13 00:46:43;;;;;;;6.70;1.45;;;;;;;22.08;58.67;100664.69;10327119;28;96846;-78
2023/08/13 00:51:47;;;;;;;3.67;1.70;;;;;;;21.72;59.35;100667.59;10325410;28;96821;-77
2023/08/13 00:56:52;;;;;;;3.60;1.38;;;;;;;21.76;59.13;100662.84;10330841;28;97536;-78
2023/08/13 01:01:56;;;;;;;4.20;1.90;;;;;;;21.57;60.08;100659.91;10318554;28;96777;-78
2023/08/13 01:07:08;;;;;;;5.72;1.73;;;;;;;21.28;61.19;100655.00;10301883;28;96861;-77
2023/08/13 01:12:19;;;;;;;4.60;1.42;;;;;;;21.60;60.39;100651.63;10328012;28;96796;-77
2023/08/13 01:17:25;;;;;;;2.30;1.33;;;;;;;21.77;59.75;100645.78;10331655;28;98495;-77
2023/08/13 01:22:30;;;;;;;3.42;1.58;;;;;;;21.52;60.39;100638.84;10376820;28;96692;-78
2023/08/13 01:27:39;;;;;;;5.82;1.67;;;;;;;20.96;61.91;100634.31;10319830;28;96854;-77
2023/08/13 01:32:55;;;;;;;4.90;1.52;;;;;;;21.08;61.69;100628.03;10323897;28;96786;-77
2023/08/13 01:38:01;;;;;;;5.20;2.00;;;;;;;21.25;61.30;100630.28;10332678;28;96854;-78
2023/08/13 01:43:04;;;;;;;3.22;1.42;;;;;;;21.21;61.26;100626.13;10331237;28;98275;-77
2023/08/13 01:48:09;;;;;;;3.47;1.60;;;;;;;21.29;61.12;100621.88;10317140;28;97302;-78
2023/08/13 01:53:13;;;;;;;4.97;1.83;;;;;;;21.26;61.05;100619.47;10329660;28;96622;-77
2023/08/13 01:58:17;;;;;;;3.33;1.50;;;;;;;21.22;61.61;100612.66;10308944;28;98556;-77
2023/08/13 02:03:20;;;;;;;3.78;1.58;;;;;;;21.08;61.68;100614.66;10324192;28;96893;-78
2023/08/13 02:08:25;;;;;;;4.47;1.57;;;;;;;21.24;61.24;100610.69;10304205;28;96830;-78
2023/08/13 02:13:28;;;;;;;3.47;1.55;;;;;;;20.87;62.29;100611.81;10298922;28;96770;-78
2023/08/13 02:18:32;;;;;;;4.88;1.70;;;;;;;21.28;60.93;100588.06;10322774;28;99175;-77
2023/08/13 02:23:36;;;;;;;2.47;1.53;;;;;;;21.14;61.36;100598.97;10352538;28;97369;-77
2023/08/13 02:28:40;;;;;;;6.53;1.77;;;;;;;21.42;60.66;100584.31;10332863;28;97771;-78
2023/08/13 02:33:43;;;;;;;7.10;1.90;;;;;;;21.65;60.13;100590.50;10322927;28;96783;-77
2023/08/13 02:38:48;;;;;;;4.95;1.42;;;;;;;21.84;59.76;100588.94;10318249;28;96865;-78
2023/08/13 02:43:52;;;;;;;4.38;1.67;;;;;;;21.85;59.80;100585.25;10320698;28;96989;-78
2023/08/13 02:48:56;;;;;;;5.97;1.73;;;;;;;21.34;61.00;100592.09;10312565;28;96935;-78
2023/08/13 02:54:00;;;;;;;4.38;1.70;;;;;;;21.18;61.68;100584.41;10330126;28;97017;-78
2023/08/13 02:59:04;;;;;;;4.07;1.70;;;;;;;21.04;61.95;100581.06;10293645;28;96745;-78
2023/08/13 03:04:07;;;;;;;4.25;1.65;;;;;;;21.09;61.95;100586.91;10304176;28;98235;-77
2023/08/13 03:09:20;;;;;;;3.20;1.30;;;;;;;20.90;62.52;100581.25;10323929;28;96942;-78
2023/08/13 03:14:23;;;;;;;3.88;1.60;;;;;;;20.98;62.22;100569.00;10326406;28;96843;-78
2023/08/13 03:19:26;;;;;;;3.47;1.65;;;;;;;20.82;62.84;100570.31;10308775;28;97397;-78
2023/08/13 03:24:31;;;;;;;5.03;1.67;;;;;;;20.72;62.77;100556.81;10305100;28;96877;-78
2023/08/13 03:29:34;;;;;;;4.40;1.60;;;;;;;20.21;64.35;100564.22;10288643;28;96740;-78
2023/08/13 03:34:38;;;;;;;6.28;2.28;;;;;;;20.34;63.90;100569.53;10291844;28;97026;-78
2023/08/13 03:39:42;;;;;;;4.28;1.70;;;;;;;20.30;63.88;100565.38;10300503;28;98310;-77
2023/08/13 03:44:46;;;;;;;3.25;1.80;;;;;;;20.32;63.84;100572.31;10309169;28;96968;-77
2023/08/13 03:49:49;;;;;;;4.97;2.20;;;;;;;20.48;63.40;100577.34;10334908;28;96931;-78
2023/08/13 03:54:54;;;;;;;5.35;1.83;;;;;;;20.50;63.27;100582.63;10335740;28;96854;-78
2023/08/13 03:59:57;;;;;;;3.63;1.80;;;;;;;20.23;63.94;100580.13;10323966;28;97009;-78
2023/08/13 04:05:01;;;;;;;3.08;1.70;;;;;;;20.43;63.24;100576.84;10333741;28;97459;-78
2023/08/13 04:10:06;;;;;;;3.03;1.85;;;;;;;20.12;64.17;100585.41;10311568;28;96722;-78
2023/08/13 04:15:10;;;;;;;3.50;1.80;;;;;;;20.03;64.52;100578.94;10312722;28;98699;-78
2023/08/13 04:20:14;;;;;;;3.20;1.80;;;;;;;20.10;64.07;100574.84;10328925;28;97610;-78
2023/08/13 04:25:18;;;;;;;4.28;1.50;;;;;;;20.33;63.63;100568.69;10326793;28;97028;-78
2023/08/13 04:30:22;;;;;;;2.95;1.77;;;;;;;19.98;64.50;100564.19;10333337;28;97363;-78
2023/08/13 04:35:26;;;;;;;2.47;1.50;;;;;;;20.09;64.10;100573.16;10295464;28;96782;-78
2023/08/13 04:40:30;;;;;;;3.88;1.58;;;;;;;20.07;64.09;100561.72;10316277;28;96766;-78
2023/08/13 04:45:34;;;;;;;4.10;1.40;;;;;;;20.10;64.30;100565.97;10310124;28;98740;-78
2023/08/13 04:50:37;;;;;;;4.50;1.75;;;;;;;20.01;64.47;100570.16;10281947;28;97020;-78
2023/08/13 04:55:42;;;;;;;4.68;1.58;;;;;;;20.31;63.63;100567.94;10288012;28;98418;-78
2023/08/13 05:00:45;;;;;;;3.28;1.50;;;;;;;20.30;63.68;100568.91;10286189;28;96870;-78
2023/08/13 05:05:48;;;;;;;5.30;1.70;;;;;;;20.15;64.10;100569.19;10277471;28;96948;-78
2023/08/13 05:10:53;;;;;;;2.95;1.90;;;;;;;20.16;64.13;100561.03;10287856;28;96855;-78
2023/08/13 05:15:56;;;;;;;3.55;1.63;;;;;;;20.00;64.51;100565.78;10281439;28;96812;-78
2023/08/13 05:21:00;;;;;;;3.65;2.00;;;;;;;19.91;65.16;100562.97;10290117;28;96835;-77
2023/08/13 05:26:04;;;;;;;5.97;1.85;;;;;;;20.30;63.81;100558.22;10290421;28;98976;-77
2023/08/13 05:31:08;;;;;;;4.47;1.63;;;;;;;20.26;64.01;100566.53;10290532;28;96803;-78
2023/08/13 05:36:11;;;;;;;4.00;1.70;;;;;;;20.19;64.32;100571.50;10291511;28;96857;-78
2023/08/13 05:41:16;;;;;;;2.88;1.48;;;;;;;19.85;65.25;100580.28;10285736;28;98578;-78
2023/08/13 05:46:19;;;;;;;3.55;1.55;;;;;;;19.90;65.30;100572.78;10280608;28;98852;-78
2023/08/13 05:51:23;;;;;;;2.70;1.50;;;;;;;19.79;65.70;100579.84;10285088;28;98918;-78
2023/08/13 05:56:28;;;;;;;3.53;1.70;;;;;;;19.88;65.39;100581.84;10284967;28;96905;-78
2023/08/13 06:01:31;;;;;;;2.38;1.40;;;;;;;19.94;65.39;100570.75;10289673;28;96880;-78
2023/08/13 06:06:34;;;;;;;3.47;1.70;;;;;;;20.04;64.88;100574.44;10297221;28;96728;-78
2023/08/13 06:11:39;;;;;;;4.93;1.80;;;;;;;19.91;65.19;100579.00;10287521;28;97364;-78
2023/08/13 06:16:43;;;;;;;6.25;1.75;;;;;;;19.82;65.80;100572.47;10288299;28;97209;-78
2023/08/13 06:21:46;;;;;;;4.15;1.65;;;;;;;20.18;64.99;100577.81;10269384;28;96763;-77
2023/08/13 06:26:51;;;;;;;2.45;1.50;;;;;;;19.95;65.64;100573.31;10270726;28;96806;-77
2023/08/13 06:31:54;;;;;;;3.85;1.65;;;;;;;20.17;65.36;100575.22;10279077;28;96790;-78
2023/08/13 06:36:58;;;;;;;5.67;1.97;;;;;;;20.22;65.30;100575.78;10251457;28;96846;-78
2023/08/13 06:42:06;;;;;;;3.05;1.77;;;;;;;20.35;65.00;100576.59;10252499;28;96831;-78
2023/08/13 06:47:09;;;;;;;5.03;1.63;;;;;;;20.35;65.18;100587.28;10264481;28;96807;-78
2023/08/13 06:52:12;;;;;;;4.00;1.60;;;;;;;20.45;64.79;100572.25;10255692;28;98750;-78
2023/08/13 06:57:17;;;;;;;5.60;1.60;;;;;;;20.75;64.45;100579.78;10280192;28;96760;-80
2023/08/13 07:02:21;;;;;;;4.82;1.80;;;;;;;20.65;64.68;100584.13;10267007;28;96961;-85
2023/08/13 07:07:24;;;;;;;2.70;1.35;;;;;;;20.62;64.66;100587.03;10267043;28;96797;-89
2023/08/13 07:12:29;;;;;;;4.65;1.58;;;;;;;20.75;64.38;100594.00;10283823;28;96756;-86
2023/08/13 07:17:32;;;;;;;4.80;1.63;;;;;;;20.93;64.20;100594.44;10297698;28;97007;-88
2023/08/13 07:22:35;;;;;;;4.65;1.50;;;;;;;21.05;63.48;100602.34;10288634;28;96816;-83
2023/08/13 07:27:41;;;;;;;2.45;1.30;;;;;;;21.09;63.41;100594.94;10272289;28;97019;-85
2023/08/13 07:32:44;;;;;;;2.72;1.60;;;;;;;21.34;62.76;100592.09;10293708;28;96718;-86
2023/08/13 07:37:47;;;;;;;4.38;1.60;;;;;;;21.18;63.06;100588.91;10299407;28;97022;-86
2023/08/13 07:42:52;;;;;;;3.05;1.70;;;;;;;21.67;61.80;100584.06;10284087;28;96776;-85
2023/08/13 07:47:55;;;;;;;3.78;1.70;;;;;;;21.98;61.52;100594.06;10306755;28;97261;-85
2023/08/13 07:52:59;;;;;;;2.92;1.75;;;;;;;22.07;60.90;100592.44;10304679;28;96747;-85
2023/08/13 07:58:03;;;;;;;5.22;1.80;;;;;;;22.48;59.92;100585.38;10317573;28;96800;-85
2023/08/13 08:03:08;;;;;;;3.50;1.40;;;;;;;22.79;59.30;100583.69;10351729;28;99381;-85
2023/08/13 08:08:11;;;;;;;4.20;1.33;;;;;;;22.98;59.00;100577.59;10344524;28;98887;-79
2023/08/13 08:13:16;;;;;;;5.18;2.05;;;;;;;23.11;58.70;100572.88;10326774;28;98594;-80
2023/08/13 08:18:20;;;;;;;4.07;1.63;;;;;;;23.29;57.96;100557.84;10331913;28;96838;-80
2023/08/13 08:23:23;;;;;;;3.95;1.58;;;;;;;23.87;56.59;100562.50;10324931;28;97141;-79
2023/08/13 08:28:28;;;;;;;4.03;1.92;;;;;;;24.31;56.06;100555.78;10315867;28;97033;-79
2023/08/13 08:33:31;;;;;;;3.47;1.55;;;;;;;24.36;55.85;100545.50;10330276;28;97004;-79
2023/08/13 08:38:34;;;;;;;4.63;1.60;;;;;;;24.41;55.90;100535.97;10323435;28;98768;-79
2023/08/13 08:43:40;;;;;;;3.93;1.50;;;;;;;24.50;55.40;100543.22;10317019;28;99012;-80
2023/08/13 08:48:44;;;;;;;3.33;1.80;;;;;;;24.97;54.16;100519.91;10333110;28;97111;-79
2023/08/13 08:53:50;;;;;;;3.03;1.70;;;;;;;25.37;53.29;100525.06;10334237;28;97116;-79
2023/08/13 08:58:55;;;;;;;3.85;1.30;;;;;;;25.71;52.75;100512.75;10318153;28;97160;-80
2023/08/13 09:03:58;;;;;;;4.93;1.73;;;;;;;26.05;51.94;100512.94;10335274;28;96821;-79
2023/08/13 09:09:01;;;;;;;4.30;1.77;;;;;;;26.50;50.70;100503.81;10329864;28;96906;-80
2023/08/13 09:14:06;;;;;;;3.87;1.30;;;;;;;26.72;50.70;100507.84;10316315;28;97635;-80
2023/08/13 09:19:09;;;;;;;6.32;1.80;;;;;;;26.94;50.09;100494.66;10311012;28;96703;-79
2023/08/13 09:24:16;;;;;;;3.22;1.30;;;;;;;27.24;49.16;100490.66;10324664;28;97607;-79
2023/08/13 09:29:21;;;;;;;4.28;1.55;;;;;;;27.58;48.84;100490.66;10309849;28;97631;-78
2023/08/13 09:34:25;;;;;;;4.55;1.60;;;;;;;27.81;48.99;100476.38;10319907;28;97374;-79
2023/08/13 09:39:31;;;;;;;2.97;1.35;;;;;;;27.96;48.65;100474.72;10299124;28;99457;-78
2023/08/13 09:44:36;;;;;;;5.18;1.70;;;;;;;28.16;48.58;100471.69;10317652;28;98315;-78
2023/08/13 09:49:41;;;;;;;6.22;2.03;;;;;;;28.47;47.85;100470.91;10289267;28;98480;-75
2023/08/13 09:54:49;;;;;;;4.05;1.50;;;;;;;25.81;65.27;100459.59;10289692;28;98751;-75
2023/08/13 09:59:55;;;;;;;2.70;1.58;;;;;;;26.66;59.24;100457.19;10287441;28;97149;-74
2023/08/13 10:04:59;;;;;;;4.38;1.33;;;;;;;27.46;56.34;100454.09;10274743;28;96806;-75
2023/08/13 10:10:03;;;;;;;4.97;1.70;;;;;;;27.98;53.48;100448.34;10277273;28;98289;-76
2023/08/13 10:15:12;;;;;;;3.55;1.75;;;;;;;28.30;51.81;100444.00;10288972;28;97646;-76
2023/08/13 10:20:18;;;;;;;4.38;1.63;;;;;;;28.60;50.03;100438.72;10279923;28;97155;-75
2023/08/13 10:25:29;;;;;;;4.30;1.75;;;;;;;28.45;49.48;100439.59;10274125;28;96954;-76
2023/08/13 10:30:34;;;;;;;3.58;1.70;;;;;;;28.35;49.33;100434.38;10280805;28;97094;-75
2023/08/13 10:35:39;;;;;;;4.80;2.03;;;;;;;28.32;49.40;100431.16;10292513;28;97215;-76
2023/08/13 10:40:59;;;;;;;3.70;1.73;;;;;;;28.17;48.97;100424.69;10286909;28;96901;-75
2023/08/13 10:46:06;;;;;;;3.20;1.80;;;;;;;27.89;49.17;100421.47;10286989;28;98346;-75
2023/08/13 10:51:10;;;;;;;2.33;1.45;;;;;;;28.07;49.21;100414.88;10284133;28;96748;-79
2023/08/13 10:56:18;;;;;;;3.60;1.77;;;;;;;27.96;48.87;100403.56;10256210;28;96848;-77
2023/08/13 11:01:23;;;;;;;3.28;1.90;;;;;;;27.75;49.22;100400.47;10262293;28;96704;-76
2023/08/13 11:06:28;;;;;;;3.00;1.77;;;;;;;27.86;48.51;100397.44;10279384;28;98818;-76
2023/08/13 11:11:31;;;;;;;3.63;1.65;;;;;;;28.03;48.38;100388.34;10287938;28;96922;-78
2023/08/13 11:16:36;;;;;;;2.92;1.85;;;;;;;28.34;48.05;100381.25;10275676;28;98246;-78
2023/08/13 11:21:39;;;;;;;4.18;1.75;;;;;;;28.58;47.50;100381.22;10287252;28;98693;-79
2023/08/13 11:26:42;;;;;;;5.47;2.10;;;;;;;28.45;47.29;100374.59;10287582;28;97264;-77
2023/08/13 11:31:47;;;;;;;5.88;1.85;;;;;;;27.88;47.08;100388.16;10285015;28;99006;-77
2023/08/13 11:36:52;;;;;;;3.53;1.70;;;;;;;28.25;47.00;100373.25;10278940;28;96844;-78
2023/08/13 11:41:55;;;;;;;2.10;1.45;;;;;;;28.44;46.75;100362.97;10287965;28;96844;-75
2023/08/13 11:47:00;;;;;;;4.38;1.70;;;;;;;28.71;46.41;100365.25;10276122;28;97098;-74
2023/08/13 11:52:06;;;;;;;2.55;1.35;;;;;;;28.74;45.41;100362.19;10277760;28;96786;-75
2023/08/13 11:57:09;;;;;;;2.92;1.55;;;;;;;28.65;45.82;100371.38;10280189;28;96920;-75
2023/08/13 12:02:14;;;;;;;3.30;1.67;;;;;;;28.69;45.44;100370.00;10271834;28;96834;-75
2023/08/13 12:07:18;;;;;;;4.47;1.83;;;;;;;28.86;44.94;100351.84;10279735;28;96811;-75
2023/08/13 12:12:21;;;;;;;3.33;1.77;;;;;;;29.11;44.98;100348.03;10274120;28;97035;-75
2023/08/13 12:17:26;;;;;;;3.50;1.95;;;;;;;29.24;45.05;100342.03;10336852;22;96902;-76
2023/08/13 12:22:29;;;;;;;4.55;2.10;;;;;;;28.93;44.97;100334.72;10452522;27;98698;-74
2023/08/13 12:27:33;;;;;;;3.92;1.90;;;;;;;29.66;44.40;100327.03;10454320;27;97868;-75
2023/08/13 12:32:38;;;;;;;4.18;2.17;;;;;;;29.57;44.31;100328.13;10452957;27;97174;-75
2023/08/13 12:37:41;;;;;;;4.20;1.80;;;;;;;29.85;43.41;100323.00;10444316;27;97903;-75
2023/08/13 12:42:45;;;;;;;4.50;2.08;;;;;;;30.11;42.94;100324.31;10458250;27;98132;-75
2023/08/13 12:47:49;;;;;;;5.20;1.80;;;;;;;29.93;43.55;100320.22;10439190;27;98752;-75
2023/08/13 12:52:53;;;;;;;4.82;2.30;;;;;;;30.04;43.29;100311.63;10448157;27;96867;-75
2023/08/13 12:57:56;;;;;;;2.80;1.58;;;;;;;30.11;43.32;100312.59;10434094;27;96935;-75
2023/08/13 13:03:00;;;;;;;;;;;;;;;29.79;43.40;100311.00;10441412;27;98737;-75
2023/08/13 13:08:04;;;;;;;4.40;1.98;;;;;;;29.88;43.13;100309.06;10451025;27;96896;-74
2023/08/13 13:13:07;;;;;;;3.00;2.05;;;;;;;29.97;43.02;100306.09;10447282;27;96879;-75
2023/08/13 13:18:12;;;;;;;;;;;;;;;30.11;41.99;100302.59;10452977;27;99052;-74
2023/08/13 13:23:15;;;;;;;5.25;2.13;;;;;;;30.18;42.57;100302.69;10457997;27;96876;-75
2023/08/13 13:28:18;;;;;;;3.97;2.05;;;;;;;30.41;42.30;100300.78;10451637;27;96913;-75
2023/08/13 13:33:23;;;;;;;3.95;2.50;;;;;;;30.24;42.31;100297.41;10450659;27;96690;-75
2023/08/13 13:38:26;;;;;;;6.55;2.72;;;;;;;30.38;42.17;100303.00;10454346;27;98351;-75
2023/08/13 13:43:29;;;;;;;;;;;;;;;30.31;42.74;100296.63;10425293;27;96778;-75
2023/08/13 13:48:34;;;;;;;6.20;2.50;;;;;;;30.50;42.27;100288.78;10445335;27;96956;-74
2023/08/13 13:53:38;;;;;;;6.03;2.58;;;;;;;30.17;42.33;100291.03;10449534;27;96764;-75
2023/08/13 13:58:41;;;;;;;4.40;2.80;;;;;;;30.01;42.19;100290.28;10427456;27;96799;-75
2023/08/13 14:03:46;;;;;;;;;;;;;;;30.17;42.16;100284.72;10432320;27;98616;-75
2023/08/13 14:08:49;;;;;;;5.43;2.83;;;;;;;30.35;41.84;100277.09;10444999;27;96845;-74
2023/08/13 14:13:52;;;;;;;4.97;2.80;;;;;;;30.41;42.05;100273.59;10435981;27;96978;-75
2023/08/13 14:18:57;;;;;;;;;;;;;;;30.28;41.35;100276.16;10440282;27;97809;-74
2023/08/13 14:24:00;;;;;;;7.03;2.45;;;;;;;30.55;41.50;100274.63;10443706;27;96819;-75
2023/08/13 14:29:03;;;;;;;4.28;2.08;;;;;;;30.59;40.94;100274.09;10455059;27;98358;-75
2023/08/13 14:34:08;;;;;;;;;;;;;;;30.56;40.76;100273.63;10451951;27;96833;-76
2023/08/13 14:39:11;;;;;;;5.40;2.22;;;;;;;30.62;41.08;100260.13;10437129;27;96779;-76
2023/08/13 14:44:15;;;;;;;;;;;;;;;30.57;40.34;100268.00;10450356;27;96836;-76
2023/08/13 14:49:19;;;;;;;3.97;2.05;;;;;;;30.22;40.92;100260.59;10444530;27;96787;-76
2023/08/13 14:54:23;;;;;;;4.90;2.22;;;;;;;30.32;40.42;100252.19;10452410;27;96820;-76
2023/08/13 14:59:26;;;;;;;5.47;2.97;;;;;;;29.93;40.48;100253.22;10446820;27;97754;-76
2023/08/13 15:04:30;;;;;;;;;;;;;;;30.44;39.52;100243.34;10442299;27;97031;-77
2023/08/13 15:09:34;;;;;;;3.28;1.90;;;;;;;30.31;39.83;100242.31;10445332;27;96917;-77
2023/08/13 15:14:37;;;;;;;3.50;1.95;;;;;;;30.31;40.26;100245.91;10432451;27;96874;-76
2023/08/13 15:19:41;;;;;;;2.88;1.60;;;;;;;30.26;39.56;100237.47;10438358;27;96956;-77
2023/08/13 15:24:45;;;;;;;2.95;1.80;;;;;;;30.12;40.05;100232.88;10452986;27;98743;-77
2023/08/13 15:29:48;;;;;;;5.13;2.08;;;;;;;30.21;40.24;100240.72;10431122;27;97255;-75
2023/08/13 15:34:53;;;;;;;3.63;1.73;;;;;;;29.84;40.44;100234.47;10442086;27;96926;-76
2023/08/13 15:39:56;;;;;;;2.33;1.48;;;;;;;29.77;40.39;100238.94;10455765;27;98281;-75
2023/08/13 15:45:00;;;;;;;3.13;1.38;;;;;;;29.94;39.92;100229.63;10452706;27;97736;-76
2023/08/13 15:50:05;;;;;;;4.00;1.58;;;;;;;29.75;39.80;100230.16;10443104;27;97116;-76
2023/08/13 15:55:09;;;;;;;3.17;1.63;;;;;;;29.55;40.23;100237.13;10457585;27;97543;-78
2023/08/13 16:00:14;;;;;;;2.60;1.45;;;;;;;29.35;40.03;100233.19;10452996;27;99166;-83
2023/08/13 16:05:19;;;;;;;7.57;1.77;;;;;;;29.00;40.51;100237.34;10446273;27;97805;-82
2023/08/13 16:10:23;;;;;;;2.78;1.35;;;;;;;28.43;40.39;100239.41;10451382;27;97802;-85
2023/08/13 16:15:26;;;;;;;3.50;1.38;;;;;;;28.34;40.65;100236.94;10446152;27;97149;-83
2023/08/13 16:20:31;;;;;;;4.60;1.67;;;;;;;28.24;40.97;100238.97;10457829;27;96894;-83
2023/08/13 16:25:34;;;;;;;2.65;1.08;;;;;;;28.19;40.82;100246.75;10457734;27;97158;-82
2023/08/13 16:30:38;;;;;;;3.97;1.33;;;;;;;27.94;40.97;100244.06;10458107;27;96689;-82
2023/08/13 16:35:43;;;;;;;2.30;1.30;;;;;;;27.86;42.04;100238.69;10458421;27;96893;-83
2023/08/13 16:40:46;;;;;;;1.75;0.90;;;;;;;27.88;41.81;100239.38;10459077;27;97414;-82
2023/08/13 16:45:49;;;;;;;2.22;1.05;;;;;;;27.59;41.86;100230.91;10457941;27;96811;-82
2023/08/13 16:50:55;;;;;;;4.25;1.20;;;;;;;27.42;42.88;100233.78;10458857;27;97273;-82
2023/08/13 16:55:58;;;;;;;2.97;1.10;;;;;;;26.99;44.04;100227.59;10458157;27;97194;-83
2023/08/13 17:01:03;;;;;;;3.92;1.42;;;;;;;26.99;44.61;100229.47;10457778;27;96850;-82
2023/08/13 17:06:07;;;;;;;4.90;1.45;;;;;;;26.93;44.10;100240.94;10458928;27;97093;-82
2023/08/13 17:11:12;;;;;;;2.78;1.05;;;;;;;26.81;43.27;100253.91;10458034;27;97863;-82
2023/08/13 17:16:15;;;;;;;4.35;1.08;;;;;;;26.43;44.22;100251.72;10456884;27;96840;-83
2023/08/13 17:21:20;;;;;;;3.20;1.40;;;;;;;26.35;44.34;100248.94;10456463;27;97628;-82
2023/08/13 17:26:23;;;;;;;2.10;1.05;;;;;;;26.21;44.63;100254.09;10457329;27;97958;-83
2023/08/13 17:31:29;;;;;;;3.85;1.63;;;;;;;26.24;45.49;100256.47;10457667;27;96741;-82
2023/08/13 17:36:34;;;;;;;4.30;1.70;;;;;;;26.08;46.55;100254.53;10456735;27;96902;-82
2023/08/13 17:41:37;;;;;;;3.97;1.05;;;;;;;25.97;46.02;100251.25;10457696;27;96738;-82
2023/08/13 17:46:40;;;;;;;3.83;1.77;;;;;;;26.03;46.64;100246.06;10456620;27;96864;-81
2023/08/13 17:51:45;;;;;;;3.25;1.20;;;;;;;26.00;46.99;100261.72;10456734;27;96630;-83
2023/08/13 17:56:49;;;;;;;5.50;1.90;;;;;;;26.20;47.50;100257.78;10456681;27;96855;-82
2023/08/13 18:01:52;;;;;;;5.18;1.40;;;;;;;25.97;48.04;100253.97;10456144;27;96766;-82
2023/08/13 18:06:57;;;;;;;4.60;1.20;;;;;;;26.09;47.84;100253.50;10456240;27;96615;-81
2023/08/13 18:12:00;;;;;;;5.10;1.38;;;;;;;26.04;47.83;100250.44;10455364;27;96639;-81
2023/08/13 18:17:04;;;;;;;4.20;1.53;;;;;;;26.15;47.97;100250.19;10454844;27;96601;-82
2023/08/13 18:22:09;;;;;;;2.67;1.48;;;;;;;26.05;48.63;100237.81;10455392;27;96795;-81
2023/08/13 18:27:12;;;;;;;2.63;1.48;;;;;;;25.90;48.71;100238.41;10423836;27;96998;-82
2023/08/13 18:32:17;;;;;;;2.55;1.17;;;;;;;25.56;49.39;100225.81;10413961;28;96708;-82
2023/08/13 18:37:21;;;;;;;3.80;1.50;;;;;;;25.51;49.07;100239.75;10413760;28;97062;-82
2023/08/13 18:42:25;;;;;;;3.35;1.38;;;;;;;25.30;49.83;100241.06;10431134;27;96755;-81
2023/08/13 18:47:28;;;;;;;;;;;;;;;25.21;50.33;100234.75;10437012;27;97172;-82
2023/08/13 18:52:34;;;;;;;2.40;1.40;;;;;;;25.02;50.41;100239.47;10413625;28;96922;-82
2023/08/13 18:57:39;;;;;;;3.00;1.35;;;;;;;24.89;51.11;100237.09;10412408;28;96827;-82
2023/08/13 19:02:42;;;;;;;5.28;1.70;;;;;;;24.69;51.64;100247.13;10451265;27;96569;-82
2023/08/13 19:07:47;;;;;;;4.93;2.22;;;;;;;24.34;53.36;100249.72;10454609;27;96681;-83
2023/08/13 19:12:50;;;;;;;5.57;1.98;;;;;;;24.21;53.53;100259.94;10461790;27;96727;-82
2023/08/13 19:17:54;;;;;;;5.07;1.53;;;;;;;24.18;53.86;100270.13;10461010;27;97293;-83
2023/08/13 19:22:59;;;;;;;3.37;1.40;;;;;;;23.84;55.28;100271.66;10461146;27;96939;-81
2023/08/13 19:28:02;;;;;;;4.13;1.30;;;;;;;23.78;55.61;100282.94;10461577;27;96741;-83
2023/08/13 19:33:06;;;;;;;4.63;1.45;;;;;;;23.77;55.96;100295.53;10461420;27;97455;-82
2023/08/13 19:38:11;;;;;;;5.28;1.50;;;;;;;23.56;56.99;100306.44;10462022;27;96899;-82
2023/08/13 19:43:19;;;;;;;4.30;1.90;;;;;;;23.41;57.24;100317.72;10461045;27;97183;-82
2023/08/13 19:48:22;;;;;;;6.63;1.50;;;;;;;23.40;57.31;100327.63;10434827;27;97424;-82
2023/08/13 19:53:27;;;;;;;4.07;1.53;;;;;;;23.46;57.04;100340.47;10413073;28;96967;-82
2023/08/13 19:58:30;;;;;;;4.93;1.40;;;;;;;23.45;57.25;100338.81;10418396;28;96624;-82
2023/08/13 20:03:34;;;;;;;4.82;1.45;;;;;;;23.09;58.53;100349.34;10418391;28;96604;-82
2023/08/13 20:08:39;;;;;;;3.60;1.07;;;;;;;22.99;58.97;100351.16;10446533;27;97553;-83
2023/08/13 20:13:43;;;;;;;5.80;1.73;;;;;;;23.10;58.66;100353.69;10460029;27;96853;-82
2023/08/13 20:18:46;;;;;;;3.00;1.13;;;;;;;23.08;58.19;100353.84;10459070;27;96618;-82
2023/08/13 20:23:52;;;;;;;4.28;1.70;;;;;;;22.91;59.21;100356.31;10458163;27;96794;-82
2023/08/13 20:28:55;;;;;;;5.97;1.60;;;;;;;22.78;59.17;100363.78;10460034;27;96755;-82
2023/08/13 20:33:58;;;;;;;3.50;1.05;;;;;;;22.96;58.64;100364.81;10459435;27;96697;-82
2023/08/13 20:39:04;;;;;;;6.57;1.80;;;;;;;23.17;58.05;100368.28;10459166;27;96750;-82
2023/08/13 20:44:08;;;;;;;2.88;1.23;;;;;;;23.30;57.93;100366.19;10457931;27;97641;-82
2023/08/13 20:49:20;;;;;;;4.87;1.37;;;;;;;23.26;57.95;100367.47;10433134;27;96903;-82
2023/08/13 20:54:25;;;;;;;3.65;1.20;;;;;;;23.02;58.78;100372.34;10416729;28;96674;-82
2023/08/13 20:59:28;;;;;;;3.10;1.20;;;;;;;23.19;58.02;100375.22;10436538;27;96709;-82
2023/08/13 21:04:31;;;;;;;3.13;1.30;;;;;;;23.05;58.26;100380.13;10458097;27;97308;-82
2023/08/13 21:09:36;;;;;;;4.37;1.23;;;;;;;22.80;59.55;100380.59;10458086;27;96692;-82
2023/08/13 21:14:39;;;;;;;2.47;1.27;;;;;;;22.91;59.17;100375.13;10457863;27;96733;-82
2023/08/13 21:19:44;;;;;;;6.22;1.88;;;;;;;22.42;60.80;100365.09;10457172;27;96799;-81
2023/08/13 21:24:49;;;;;;;5.18;1.50;;;;;;;22.32;60.52;100375.78;10457141;27;96692;-82
2023/08/13 21:30:05;;;;;;;4.65;1.40;;;;;;;22.44;60.78;100376.56;10457232;27;96693;-82
2023/08/13 21:35:09;;;;;;;6.00;1.75;;;;;;;22.24;61.08;100372.94;10455301;27;96819;-82
2023/08/13 21:40:16;;;;;;;8.32;1.98;;;;;;;22.23;61.39;100375.75;10456775;27;97826;-82
2023/08/13 21:45:19;;;;;;;5.50;1.33;;;;;;;21.97;62.15;100380.59;10457265;27;96842;-82
2023/08/13 21:50:23;;;;;;;3.33;1.60;;;;;;;21.97;61.80;100379.75;10456415;27;96690;-82
2023/08/13 21:55:29;;;;;;;5.45;1.35;;;;;;;21.90;62.12;100384.75;10456764;27;96814;-82
2023/08/13 22:00:32;;;;;;;5.97;1.88;;;;;;;21.69;63.01;100386.59;10455960;27;96748;-82
2023/08/13 22:05:41;;;;;;;2.63;1.23;;;;;;;21.58;63.39;100385.75;10455941;27;96726;-82
2023/08/13 22:10:45;;;;;;;3.38;1.17;;;;;;;21.69;62.87;100381.22;10456985;27;96637;-82
2023/08/13 22:15:49;;;;;;;4.15;1.40;;;;;;;21.61;63.06;100382.81;10455320;27;97506;-82
2023/08/13 22:20:52;;;;;;;4.07;1.43;;;;;;;21.58;63.21;100386.63;10455456;27;96872;-82
2023/08/13 22:25:57;;;;;;;3.45;1.40;;;;;;;21.46;63.85;100379.59;10454848;27;96979;-82
2023/08/13 22:31:19;;;;;;;4.32;1.73;;;;;;;21.35;64.15;100379.63;10455453;27;96901;-82
2023/08/13 22:36:23;;;;;;;4.82;1.90;;;;;;;21.14;64.58;100370.63;10455003;27;96699;-82
2023/08/13 22:41:27;;;;;;;4.70;1.77;;;;;;;21.38;63.62;100363.31;10455014;27;96561;-82
2023/08/13 22:46:31;;;;;;;3.58;1.40;;;;;;;21.52;63.08;100368.34;10453852;27;96873;-82
2023/08/13 22:51:34;;;;;;;1.90;1.17;;;;;;;21.58;62.96;100362.50;10454886;27;97442;-82
2023/08/13 22:56:39;;;;;;;3.37;1.50;;;;;;;21.56;63.16;100364.47;10454937;27;96920;-82
2023/08/13 23:01:44;;;;;;;4.30;1.60;;;;;;;21.67;62.73;100374.28;10455073;27;96934;-82
2023/08/13 23:06:47;;;;;;;4.00;1.50;;;;;;;21.64;62.96;100372.69;10454510;27;96677;-82
2023/08/13 23:11:52;;;;;;;4.15;1.38;;;;;;;21.47;63.57;100375.94;10454858;27;96985;-82
2023/08/13 23:16:56;;;;;;;6.57;1.85;;;;;;;21.66;62.84;100378.78;10452649;27;97194;-82
2023/08/13 23:21:59;;;;;;;6.87;1.73;;;;;;;21.74;62.67;100381.69;10454184;27;96772;-82